Time;durP1;ratioP1;P1;durP2;ratioP2;P2;SDS_P1;SDS_P2;PMS_P1;PMS_P2;Temp;Humidity;BMP_temperature;BMP_pressure;BME280_temperature;BME280_humidity;BME280_pressure;Samples;Min_cycle;Max_cycle;Signal;HPM_P1;HPM_P2
2023/04/27 00:01:37;;;;;;;5.70;5.20;;;18.40;99.90;;;;;;5071057;28;20029;-43
2023/04/27 00:04:03;;;;;;;6.32;5.80;;;18.40;99.90;;;;;;5069681;28;20037;-42
2023/04/27 00:06:29;;;;;;;5.60;5.10;;;18.40;99.90;;;;;;5070840;28;20039;-41
2023/04/27 00:08:55;;;;;;;5.55;5.05;;;18.40;99.90;;;;;;5070564;28;20021;-42
2023/04/27 00:11:21;;;;;;;5.82;4.68;;;18.40;99.90;;;;;;5070960;28;20020;-42
2023/04/27 00:13:47;;;;;;;5.38;4.88;;;18.40;99.90;;;;;;5069911;28;20025;-42
2023/04/27 00:16:13;;;;;;;5.45;4.95;;;18.40;99.90;;;;;;5070918;28;20040;-41
2023/04/27 00:18:38;;;;;;;5.63;5.15;;;18.40;99.90;;;;;;5070757;28;20020;-41
2023/04/27 00:21:04;;;;;;;5.22;4.78;;;18.40;99.90;;;;;;5071444;28;20495;-41
2023/04/27 00:23:30;;;;;;;5.05;4.60;;;18.40;99.90;;;;;;5070849;28;20028;-42
2023/04/27 00:25:56;;;;;;;6.07;5.53;;;18.40;99.90;;;;;;5071287;28;20482;-41
2023/04/27 00:28:22;;;;;;;5.88;5.38;;;18.40;99.90;;;;;;5070575;28;20115;-41
2023/04/27 00:30:47;;;;;;;5.93;5.32;;;18.40;99.90;;;;;;5070829;28;20025;-41
2023/04/27 00:33:13;;;;;;;4.30;3.90;;;18.40;99.90;;;;;;5070878;28;20555;-42
2023/04/27 00:35:39;;;;;;;5.75;5.22;;;18.40;99.90;;;;;;5053020;28;20067;-44
2023/04/27 00:38:05;;;;;;;6.60;3.75;;;18.40;99.90;;;;;;5069303;28;20048;-42
2023/04/27 00:40:31;;;;;;;5.28;4.78;;;18.40;99.90;;;;;;5070759;28;20024;-42
2023/04/27 00:42:56;;;;;;;5.57;5.05;;;18.40;99.90;;;;;;5071014;28;20020;-42
2023/04/27 00:45:22;;;;;;;5.60;4.43;;;18.40;99.90;;;;;;5069308;28;20120;-41
2023/04/27 00:47:48;;;;;;;5.18;4.72;;;18.40;99.90;;;;;;5070712;28;20024;-42
2023/04/27 00:50:15;;;;;;;5.07;4.57;;;18.40;99.90;;;;;;5070334;28;20043;-42
2023/04/27 00:52:42;;;;;;;5.70;5.22;;;18.40;99.90;;;;;;5074445;28;20024;-43
2023/04/27 00:55:08;;;;;;;4.38;3.97;;;18.40;99.90;;;;;;5074584;28;20059;-43
2023/04/27 00:57:34;;;;;;;4.88;4.38;;;18.40;99.90;;;;;;5074716;28;20475;-43
2023/04/27 01:00:01;;;;;;;4.82;4.18;;;18.40;99.90;;;;;;5074354;28;20032;-42
2023/04/27 01:02:28;;;;;;;5.22;4.72;;;18.40;99.90;;;;;;5074577;28;20029;-41
2023/04/27 01:04:54;;;;;;;6.15;5.43;;;18.40;99.90;;;;;;5073179;28;20525;-41
2023/04/27 01:07:24;;;;;;;5.45;4.95;;;18.40;99.90;;;;;;5074350;28;20494;-41
2023/04/27 01:09:50;;;;;;;4.47;4.00;;;18.40;99.90;;;;;;5074050;28;20097;-41
2023/04/27 01:12:16;;;;;;;4.85;4.43;;;18.40;99.90;;;;;;5074286;28;20574;-42
2023/04/27 01:14:41;;;;;;;6.00;4.35;;;18.40;99.90;;;;;;5074345;28;20021;-43
2023/04/27 01:17:07;;;;;;;5.38;4.88;;;18.40;99.90;;;;;;5072871;28;20041;-42
2023/04/27 01:19:33;;;;;;;4.15;3.75;;;18.40;99.90;;;;;;5072491;28;20032;-41
2023/04/27 01:21:59;;;;;;;4.47;4.07;;;18.40;99.90;;;;;;5074114;28;20462;-42
2023/04/27 01:24:24;;;;;;;4.60;4.20;;;18.40;99.90;;;;;;5074208;28;20101;-42
2023/04/27 01:26:52;;;;;;;4.65;4.25;;;18.40;99.90;;;;;;5073827;28;20394;-43
2023/04/27 01:29:18;;;;;;;3.85;3.50;;;18.40;99.90;;;;;;5073560;28;20028;-42
2023/04/27 01:31:45;;;;;;;4.50;3.90;;;18.40;99.90;;;;;;5074051;28;20099;-42
2023/04/27 01:34:11;;;;;;;3.85;3.53;;;18.40;99.90;;;;;;5073934;28;20042;-42
2023/04/27 01:36:37;;;;;;;4.07;3.67;;;18.40;99.90;;;;;;5073852;28;20482;-42
2023/04/27 01:39:03;;;;;;;4.30;3.90;;;18.40;99.90;;;;;;5072219;28;20116;-41
2023/04/27 01:41:29;;;;;;;5.63;4.25;;;18.40;99.90;;;;;;5073848;28;20058;-42
2023/04/27 01:43:54;;;;;;;4.55;4.15;;;18.40;99.90;;;;;;5072464;28;20052;-42
2023/04/27 01:46:20;;;;;;;3.63;3.33;;;18.40;99.90;;;;;;5073717;28;20481;-42
2023/04/27 01:48:46;;;;;;;4.20;3.80;;;18.40;99.90;;;;;;5073340;28;20032;-42
2023/04/27 01:51:11;;;;;;;3.92;3.63;;;18.40;99.90;;;;;;5073722;28;20059;-42
2023/04/27 01:53:37;;;;;;;4.45;4.05;;;18.30;99.90;;;;;;5073696;28;20032;-42
2023/04/27 01:56:03;;;;;;;4.35;3.95;;;18.40;99.90;;;;;;5073650;28;20020;-42
2023/04/27 01:58:29;;;;;;;3.50;3.20;;;18.40;99.90;;;;;;5073358;28;20035;-42
2023/04/27 02:00:54;;;;;;;3.13;2.90;;;18.30;99.90;;;;;;5073814;28;20474;-42
2023/04/27 02:03:20;;;;;;;3.45;3.17;;;18.30;99.90;;;;;;5073101;28;20047;-42
2023/04/27 02:05:46;;;;;;;3.22;2.92;;;18.40;99.90;;;;;;5073735;28;20109;-42
2023/04/27 02:08:12;;;;;;;4.35;3.80;;;18.40;99.90;;;;;;5073329;28;20032;-42
2023/04/27 02:10:38;;;;;;;4.72;3.45;;;18.40;99.90;;;;;;5072218;28;20486;-42
2023/04/27 02:13:04;;;;;;;3.58;3.28;;;18.40;99.90;;;;;;5072383;28;20037;-43
2023/04/27 02:15:30;;;;;;;3.85;3.53;;;18.30;99.90;;;;;;5073337;28;20016;-43
2023/04/27 02:17:57;;;;;;;3.95;3.58;;;18.40;99.90;;;;;;5073203;28;20051;-43
2023/04/27 02:20:23;;;;;;;3.20;3.00;;;18.40;99.90;;;;;;5072743;28;20078;-42
2023/04/27 02:22:48;;;;;;;3.25;2.95;;;18.40;99.90;;;;;;5073126;28;20017;-43
2023/04/27 02:25:14;;;;;;;3.40;3.10;;;18.30;99.90;;;;;;5072921;28;20028;-42
2023/04/27 02:27:40;;;;;;;3.83;3.45;;;18.40;99.90;;;;;;5072936;28;20032;-44
2023/04/27 02:30:08;;;;;;;3.33;3.03;;;18.40;99.90;;;;;;5072546;28;20056;-42
2023/04/27 02:32:34;;;;;;;4.07;3.72;;;18.30;99.90;;;;;;5071565;28;20466;-42
2023/04/27 02:35:01;;;;;;;3.65;3.35;;;18.30;99.90;;;;;;5073018;28;20028;-44
2023/04/27 02:37:27;;;;;;;3.85;3.22;;;18.40;99.90;;;;;;5072769;28;20024;-43
2023/04/27 02:39:52;;;;;;;3.50;3.20;;;18.30;99.90;;;;;;5071115;28;20115;-42
2023/04/27 02:42:18;;;;;;;2.80;2.60;;;18.40;99.90;;;;;;5073073;28;20031;-43
2023/04/27 02:44:44;;;;;;;3.40;3.10;;;18.40;99.90;;;;;;5071166;28;20064;-42
2023/04/27 02:47:10;;;;;;;4.13;3.72;;;18.40;99.90;;;;;;5072292;28;20024;-42
2023/04/27 02:49:36;;;;;;;3.08;2.88;;;18.40;99.90;;;;;;5072056;28;20017;-46
2023/04/27 02:52:02;;;;;;;3.67;3.28;;;18.40;99.90;;;;;;5071130;28;20113;-42
2023/04/27 02:54:28;;;;;;;3.63;3.33;;;18.40;99.90;;;;;;5070989;28;20129;-43
2023/04/27 02:56:54;;;;;;;3.60;3.30;;;18.30;99.90;;;;;;5072155;28;20470;-43
2023/04/27 02:59:19;;;;;;;3.22;2.92;;;18.40;99.90;;;;;;5071893;28;20088;-42
2023/04/27 03:01:45;;;;;;;3.22;2.95;;;18.30;99.90;;;;;;5070711;28;20483;-42
2023/04/27 03:04:13;;;;;;;3.75;3.45;;;18.40;99.90;;;;;;5072045;28;20024;-44
2023/04/27 03:06:40;;;;;;;2.60;2.40;;;18.30;99.90;;;;;;5072096;28;20029;-43
2023/04/27 03:09:06;;;;;;;2.85;2.65;;;18.40;99.90;;;;;;5070493;28;20052;-42
2023/04/27 03:11:31;;;;;;;3.22;2.92;;;18.40;99.90;;;;;;5071893;28;20025;-43
2023/04/27 03:13:57;;;;;;;2.88;2.67;;;18.40;99.90;;;;;;5069618;28;20483;-42
2023/04/27 03:16:23;;;;;;;2.95;2.70;;;18.40;99.90;;;;;;5070274;28;20024;-42
2023/04/27 03:18:49;;;;;;;3.17;2.88;;;18.40;99.90;;;;;;5070174;28;20024;-42
2023/04/27 03:21:15;;;;;;;3.72;3.42;;;18.30;99.90;;;;;;5071892;28;20024;-42
2023/04/27 03:23:41;;;;;;;3.20;2.70;;;18.40;99.90;;;;;;5071701;28;20020;-42
2023/04/27 03:26:09;;;;;;;4.70;2.70;;;18.40;99.90;;;;;;5071707;28;20031;-42
2023/04/27 03:28:35;;;;;;;5.40;3.38;;;18.30;99.90;;;;;;5069889;28;20038;-42
2023/04/27 03:31:09;;;;;;;2.72;2.53;;;18.40;99.90;;;;;;5071579;28;20020;-42
2023/04/27 03:33:36;;;;;;;2.85;2.65;;;18.40;99.90;;;;;;5071628;28;20028;-43
2023/04/27 03:36:03;;;;;;;3.10;2.83;;;18.40;99.90;;;;;;5070129;28;20052;-42
2023/04/27 03:38:29;;;;;;;3.38;3.08;;;18.30;99.90;;;;;;5071156;28;20025;-42
2023/04/27 03:40:55;;;;;;;2.60;2.40;;;18.40;99.90;;;;;;5071546;28;20060;-42
2023/04/27 03:43:22;;;;;;;2.65;2.45;;;18.30;99.90;;;;;;5071431;28;20025;-43
2023/04/27 03:45:47;;;;;;;3.38;3.08;;;18.30;99.90;;;;;;5070067;28;20025;-44
2023/04/27 03:48:14;;;;;;;3.08;2.88;;;18.30;99.90;;;;;;5070978;28;20044;-43
2023/04/27 03:50:40;;;;;;;3.70;2.88;;;18.40;99.90;;;;;;5071399;28;20383;-42
2023/04/27 03:53:06;;;;;;;3.17;2.88;;;18.30;99.90;;;;;;5071330;28;20039;-42
2023/04/27 03:55:32;;;;;;;2.60;2.40;;;18.30;99.90;;;;;;5069967;28;20029;-43
2023/04/27 03:57:58;;;;;;;2.35;2.15;;;18.30;99.90;;;;;;5071181;28;20421;-42
2023/04/27 04:00:24;;;;;;;2.80;2.60;;;18.30;99.90;;;;;;5069430;28;20036;-43
2023/04/27 04:02:51;;;;;;;4.40;2.45;;;18.40;99.90;;;;;;5071079;28;20039;-42
2023/04/27 04:05:17;;;;;;;2.85;2.60;;;18.40;99.90;;;;;;5069705;28;20063;-44
2023/04/27 04:07:43;;;;;;;2.88;2.67;;;18.30;99.90;;;;;;5070889;28;20020;-43
2023/04/27 04:10:10;;;;;;;2.45;2.03;;;18.30;99.90;;;;;;5052648;28;20050;-43
2023/04/27 04:12:36;;;;;;;3.22;2.60;;;18.30;99.90;;;;;;5070972;28;20104;-42
2023/04/27 04:15:03;;;;;;;4.22;3.08;;;18.30;99.90;;;;;;5071133;28;20449;-43
2023/04/27 04:17:29;;;;;;;3.30;3.00;;;18.40;99.90;;;;;;5071080;28;20096;-43
2023/04/27 04:19:55;;;;;;;2.75;2.55;;;18.30;99.90;;;;;;5070523;28;20025;-42
2023/04/27 04:22:21;;;;;;;2.40;2.20;;;18.40;99.90;;;;;;5071045;28;20095;-43
2023/04/27 04:24:46;;;;;;;3.08;2.42;;;18.40;99.90;;;;;;5069301;28;20032;-42
2023/04/27 04:27:12;;;;;;;3.60;2.45;;;18.30;99.90;;;;;;5070565;28;20465;-44
2023/04/27 04:29:39;;;;;;;2.80;2.40;;;18.30;99.90;;;;;;5070599;28;20059;-42
2023/04/27 04:32:06;;;;;;;2.47;2.28;;;18.30;99.90;;;;;;5069702;28;20421;-42
2023/04/27 04:34:32;;;;;;;2.72;2.53;;;18.30;99.90;;;;;;5070963;28;20586;-43
2023/04/27 04:36:58;;;;;;;2.95;2.75;;;18.30;99.90;;;;;;5070751;28;20542;-42
2023/04/27 04:39:24;;;;;;;3.13;2.83;;;18.30;99.90;;;;;;5070376;28;20112;-42
2023/04/27 04:41:49;;;;;;;2.60;2.40;;;18.30;99.90;;;;;;5070633;28;20020;-43
2023/04/27 04:44:15;;;;;;;3.10;2.90;;;18.30;99.90;;;;;;5069368;28;20112;-42
2023/04/27 04:46:41;;;;;;;3.45;2.47;;;18.30;99.90;;;;;;5070696;28;20487;-42
2023/04/27 04:49:07;;;;;;;2.10;2.00;;;18.30;99.90;;;;;;5070548;28;20433;-43
2023/04/27 04:51:33;;;;;;;2.47;2.28;;;18.30;99.90;;;;;;5070707;28;20016;-42
2023/04/27 04:53:59;;;;;;;1.83;1.73;;;18.30;99.90;;;;;;5070860;28;20032;-43
2023/04/27 04:56:25;;;;;;;2.22;2.05;;;18.30;99.90;;;;;;5070918;28;20047;-43
2023/04/27 04:58:50;;;;;;;3.22;2.78;;;18.30;99.90;;;;;;5070183;28;20033;-42
2023/04/27 05:01:16;;;;;;;2.38;2.17;;;18.30;99.90;;;;;;5070758;28;20028;-46
2023/04/27 05:03:42;;;;;;;3.28;2.40;;;18.30;99.90;;;;;;5070684;28;20056;-43
2023/04/27 05:06:08;;;;;;;2.85;2.55;;;18.30;99.90;;;;;;5070548;28;20025;-44
2023/04/27 05:08:34;;;;;;;2.03;1.80;;;18.30;99.90;;;;;;5070209;28;20460;-43
2023/04/27 05:11:00;;;;;;;2.30;2.10;;;18.30;99.90;;;;;;5070438;28;20471;-43
2023/04/27 05:13:26;;;;;;;2.72;2.50;;;18.30;99.90;;;;;;5070472;28;20024;-45
2023/04/27 05:15:52;;;;;;;2.78;2.58;;;18.30;99.90;;;;;;5070484;28;20040;-44
2023/04/27 05:18:18;;;;;;;3.17;2.88;;;18.30;99.90;;;;;;5070132;28;20059;-43
2023/04/27 05:20:44;;;;;;;2.60;2.40;;;18.30;99.90;;;;;;5070491;28;20028;-43
2023/04/27 05:23:10;;;;;;;3.40;2.40;;;18.30;99.90;;;;;;5070523;28;20021;-43
2023/04/27 05:25:40;;;;;;;2.50;2.10;;;18.30;99.90;;;;;;5070219;28;20033;-42
2023/04/27 05:28:07;;;;;;;2.65;2.45;;;18.30;99.90;;;;;;5070280;28;20115;-46
2023/04/27 05:30:33;;;;;;;5.70;2.30;;;18.30;99.90;;;;;;5070665;28;20029;-42
2023/04/27 05:32:59;;;;;;;2.33;2.13;;;18.30;99.90;;;;;;5070325;28;20021;-43
2023/04/27 05:35:24;;;;;;;3.33;2.22;;;18.30;99.90;;;;;;5070330;28;20437;-43
2023/04/27 05:37:51;;;;;;;4.65;2.58;;;18.30;99.90;;;;;;5072480;28;20111;-43
2023/04/27 05:40:16;;;;;;;2.65;2.45;;;18.30;99.90;;;;;;5073579;28;20040;-42
2023/04/27 05:42:44;;;;;;;2.17;2.03;;;18.30;99.90;;;;;;5073968;28;20074;-43
2023/04/27 05:45:10;;;;;;;2.80;2.33;;;18.30;99.90;;;;;;5074044;28;20028;-41
2023/04/27 05:47:36;;;;;;;3.60;2.25;;;18.30;99.90;;;;;;5074041;28;20510;-43
2023/04/27 05:50:02;;;;;;;2.75;2.22;;;18.30;99.90;;;;;;5073718;28;20099;-44
2023/04/27 05:52:29;;;;;;;2.53;2.30;;;18.30;99.90;;;;;;5072859;28;20024;-44
2023/04/27 05:54:57;;;;;;;2.65;2.42;;;18.30;99.90;;;;;;5073899;28;20028;-42
2023/04/27 05:57:23;;;;;;;2.33;2.13;;;18.30;99.90;;;;;;5073832;28;20039;-44
2023/04/27 05:59:49;;;;;;;2.22;2.10;;;18.30;99.90;;;;;;5073415;28;20454;-45
2023/04/27 06:02:15;;;;;;;2.78;2.60;;;18.30;99.90;;;;;;5073768;28;20045;-43
2023/04/27 06:04:41;;;;;;;2.63;2.42;;;18.30;99.90;;;;;;5073473;28;20028;-43
2023/04/27 06:07:08;;;;;;;2.30;2.10;;;18.30;99.90;;;;;;5073350;28;20368;-43
2023/04/27 06:09:34;;;;;;;2.40;2.05;;;18.30;99.90;;;;;;5072935;28;20037;-44
2023/04/27 06:12:00;;;;;;;3.20;2.92;;;18.30;99.90;;;;;;5071772;28;20023;-42
2023/04/27 06:14:27;;;;;;;3.00;2.75;;;18.30;99.90;;;;;;5073201;28;20486;-42
2023/04/27 06:16:52;;;;;;;2.75;2.55;;;18.30;99.90;;;;;;5073027;28;20059;-42
2023/04/27 06:19:18;;;;;;;2.72;2.15;;;18.30;99.90;;;;;;5071354;28;20059;-43
2023/04/27 06:21:44;;;;;;;2.42;2.22;;;18.30;99.90;;;;;;5072012;28;20432;-43
2023/04/27 06:24:09;;;;;;;2.78;2.47;;;18.30;99.90;;;;;;5073441;28;20032;-42
2023/04/27 06:26:35;;;;;;;2.50;2.30;;;18.30;99.90;;;;;;5072926;28;20481;-44
2023/04/27 06:29:03;;;;;;;2.70;2.50;;;18.30;99.90;;;;;;5072528;28;20063;-42
2023/04/27 06:31:29;;;;;;;4.00;3.17;;;18.30;99.90;;;;;;5072909;28;20020;-42
2023/04/27 06:33:55;;;;;;;3.72;2.53;;;18.30;99.90;;;;;;5072977;28;20028;-42
2023/04/27 06:36:21;;;;;;;3.63;3.33;;;18.30;99.90;;;;;;5072510;28;20024;-44
2023/04/27 06:38:46;;;;;;;2.88;2.67;;;18.30;99.90;;;;;;5071014;28;20033;-42
2023/04/27 06:41:12;;;;;;;2.90;2.70;;;18.30;99.90;;;;;;5072558;28;20166;-43
2023/04/27 06:43:38;;;;;;;3.38;3.00;;;18.30;99.90;;;;;;5072812;28;20348;-42
2023/04/27 06:46:04;;;;;;;2.70;2.50;;;18.30;99.90;;;;;;5072316;28;20031;-43
2023/04/27 06:48:30;;;;;;;3.83;3.40;;;18.30;99.90;;;;;;5071945;28;20056;-42
2023/04/27 06:50:55;;;;;;;4.80;3.63;;;18.30;99.90;;;;;;5072278;28;20059;-43
2023/04/27 06:53:21;;;;;;;3.95;3.50;;;18.30;99.90;;;;;;5072353;28;20089;-42
2023/04/27 06:55:47;;;;;;;3.40;3.10;;;18.30;99.90;;;;;;5072199;28;20107;-42
2023/04/27 06:58:13;;;;;;;3.28;2.97;;;18.30;99.90;;;;;;5071861;28;20029;-44
2023/04/27 07:00:39;;;;;;;3.30;2.90;;;18.30;99.90;;;;;;5072123;28;20078;-42
2023/04/27 07:03:05;;;;;;;3.60;2.58;;;18.30;99.90;;;;;;5070697;28;20036;-43
2023/04/27 07:05:32;;;;;;;6.07;3.25;;;18.30;99.90;;;;;;5071738;28;20035;-42
2023/04/27 07:07:58;;;;;;;3.10;2.90;;;18.30;99.90;;;;;;5071969;28;20046;-42
2023/04/27 07:10:23;;;;;;;7.07;3.00;;;18.30;99.90;;;;;;5071590;28;20478;-42
2023/04/27 07:12:49;;;;;;;3.75;3.13;;;18.20;99.90;;;;;;5070648;28;20021;-42
2023/04/27 07:15:15;;;;;;;6.25;3.35;;;18.30;99.90;;;;;;5071882;28;20036;-42
2023/04/27 07:17:40;;;;;;;5.28;2.90;;;18.30;99.90;;;;;;5072355;28;20044;-41
2023/04/27 07:20:07;;;;;;;5.30;3.35;;;18.30;99.90;;;;;;5071362;28;20028;-42
2023/04/27 07:22:33;;;;;;;9.20;3.78;;;18.30;99.90;;;;;;5071650;28;20016;-42
2023/04/27 07:24:58;;;;;;;10.25;3.35;;;18.30;99.90;;;;;;5070056;28;20047;-42
2023/04/27 07:27:25;;;;;;;5.55;3.28;;;18.30;99.90;;;;;;5071457;28;20086;-42
2023/04/27 07:29:51;;;;;;;4.53;3.83;;;18.30;99.90;;;;;;5071030;28;20029;-42
2023/04/27 07:32:17;;;;;;;4.15;3.00;;;18.30;99.90;;;;;;5071516;28;20019;-42
2023/04/27 07:34:42;;;;;;;9.98;4.00;;;18.30;99.90;;;;;;5071242;28;20077;-42
2023/04/27 07:37:09;;;;;;;7.78;3.15;;;18.30;99.90;;;;;;5071378;28;20462;-40
2023/04/27 07:39:35;;;;;;;5.55;3.65;;;18.30;99.90;;;;;;5070650;28;20023;-41
2023/04/27 07:42:02;;;;;;;9.05;4.00;;;18.30;99.90;;;;;;5071321;28;20078;-41
2023/04/27 07:44:29;;;;;;;5.97;3.80;;;18.30;99.90;;;;;;5071007;28;20595;-41
2023/04/27 07:46:57;;;;;;;11.93;4.13;;;18.30;99.90;;;;;;5070932;28;20029;-41
2023/04/27 07:49:24;;;;;;;4.15;3.63;;;18.30;99.90;;;;;;5069443;28;20028;-40
2023/04/27 07:51:50;;;;;;;5.25;3.38;;;18.30;99.90;;;;;;5071151;28;20025;-40
2023/04/27 07:54:15;;;;;;;5.53;3.28;;;18.30;99.90;;;;;;5069707;28;20028;-41
2023/04/27 07:56:42;;;;;;;9.80;4.18;;;18.30;99.90;;;;;;5071066;28;20315;-41
2023/04/27 07:59:07;;;;;;;5.70;3.55;;;18.30;99.90;;;;;;5069093;28;20025;-41
2023/04/27 08:01:33;;;;;;;7.45;3.92;;;18.30;99.90;;;;;;5069343;28;20380;-40
2023/04/27 08:03:59;;;;;;;9.35;3.53;;;18.30;99.90;;;;;;5070723;28;20025;-41
2023/04/27 08:06:27;;;;;;;5.20;3.17;;;18.30;99.90;;;;;;5070942;28;20021;-41
2023/04/27 08:08:57;;;;;;;7.60;3.88;;;18.30;99.90;;;;;;5070529;28;20029;-41
2023/04/27 08:11:23;;;;;;;11.48;5.40;;;18.30;99.90;;;;;;5070969;28;20023;-40
2023/04/27 08:13:48;;;;;;;7.95;4.85;;;18.30;99.90;;;;;;5070785;28;20021;-40
2023/04/27 08:16:14;;;;;;;4.88;4.05;;;18.30;99.90;;;;;;5071029;28;20024;-41
2023/04/27 08:18:40;;;;;;;7.13;4.00;;;18.30;99.90;;;;;;5085880;28;20035;-41
2023/04/27 08:21:06;;;;;;;6.85;3.90;;;18.30;99.90;;;;;;5084829;28;20480;-40
2023/04/27 08:23:31;;;;;;;9.88;4.15;;;18.30;99.90;;;;;;5089572;28;20028;-40
2023/04/27 08:25:57;;;;;;;17.30;5.25;;;18.30;99.90;;;;;;5075863;28;20021;-43
2023/04/27 08:28:25;;;;;;;36.10;4.50;;;18.30;99.90;;;;;;5070386;28;20040;-41
2023/04/27 08:30:51;;;;;;;24.67;5.60;;;18.30;99.90;;;;;;5078166;28;20024;-41
2023/04/27 08:33:37;;;;;;;23.05;6.07;;;18.30;99.90;;;;;;5084757;28;20020;-42
